Terminal Aerodrome Forecast
Issued by NWS

Home | Current Version | Previous Version | Text Only | Print | Product List | Glossary On
Versions: 1 2 3 4 5 6 7 8 9 10 11 12 13 14 15 16 17 18 19 20 21
000
FTUS42 KFFC 260033 AAA
TAFRYY
TAF AMD
KRYY 260033Z 2601/2624 VRB03KT P6SM -SHRA FEW020 BKN080
     FM260200 00000KT P6SM VCSH FEW020 OVC050
     FM260600 00000KT 5SM BR OVC025
     FM260900 00000KT 3SM BR OVC015
     FM261500 18003KT P6SM VCSH BKN025
     FM261800 18004KT P6SM BKN035 PROB30 2618/2624 VRB10G20KT 3SM
      TSRA BR BKN025CB=

USA.gov is the U.S. government's official web portal to all federal, state and local government web resources and services.